Aeroporto :
LOGIN :

Iscrizione | Disclaimer

   EN    FR    IT 

 










Sommario :    VFR   VFR Marginale   IFR   IFR Intensivo   IFR Molto Intensivo
Visibilità : 
Base nubi : 
>= 8 km
>= 3000ft
5 / 8 km
1000 / 3000 ft
1500m / 5 km
500 / 1000 ft
800 / 1500m
200 / 500 ft
< 800m
< 200 ft
Simboli :   Temporali  Nebbia  Neve Forte  Precipitazioni Forti  Vento > 20 kt
SIGMETs :   Varie  Temporali  Ghiacco  Turbolenza  Onda orograficha  Ceneri Vulcaniche






- Altitudine del aeroporto : 1367 ft
- Codice IATA : FDH


EDNY - Friedrichshafen

ULTIMO METAR :
  • 051350Z 22004KT 140V270 CAVOK 21/13 Q1010

METARs OBSOLETI :
  • 051320Z 22004KT 140V290 9999 SCT032 21/14 Q1011
  • 051250Z 22005KT 160V310 9999 FEW028 21/15 Q1011
  • 051220Z 24006KT 200V280 9999 FEW028 20/14 Q1011
  • 051150Z 22004KT 180V270 9999 FEW039 20/14 Q1011
  • 051120Z 23007KT 180V260 9999 FEW022 19/14 Q1012

TAF TAF EDNY
Valido dal 05 a 12 ore il 06 a 12 ore UTC


051100Z 0512/0612 22006KT 9999 SCT020
PROB40
TEMPO 0514/0518 26015G25KT 3000 TSRA BKN010 BKN020CB
PROB30
TEMPO 0518/0520 SHRA BKN020CB
PROB30
TEMPO 0602/0608 3000 SHRA BKN006 BKN015CB
PROB30
TEMPO 0610/0612 25015G25KT



MetMap, La meteo Aeronautica in un colpo d'occhio ! - Copyright ORBIFLY Dicembre 2007 - Disclaimer

ORBIFLY MET'MAP TEAM :

Programmazione e sviluppo : Alexandra Zaïnal
Concezione : Baudouin d'Aumeries
Aiuto per la programmazione : Marc-Olivier Méhu
Supporto tecnico e logistico : Manuel Goepfert
Aiuto per la traduzione : Arnaldo La Scala

Contatto : metmap@orbifly.com




FONTI E CREDITI :

   NOAA